createdAt,value
2022-12-27T00:00:29.459Z,1.10
2022-12-27T00:02:56.432Z,0.80
2022-12-27T00:05:23.331Z,0.95
2022-12-27T00:07:50.233Z,0.90
2022-12-27T00:10:17.109Z,0.93
2022-12-27T00:12:43.989Z,0.90
2022-12-27T00:15:10.927Z,0.95
2022-12-27T00:17:37.764Z,0.82
2022-12-27T00:20:11.446Z,1.00
2022-12-27T00:22:40.372Z,0.82
2022-12-27T00:25:07.787Z,0.60
2022-12-27T00:27:34.658Z,0.85
2022-12-27T00:30:01.538Z,0.82
2022-12-27T00:32:28.377Z,0.70
2022-12-27T00:34:55.244Z,0.63
2022-12-27T00:37:22.356Z,0.85
2022-12-27T00:39:49.306Z,0.70
2022-12-27T00:42:16.154Z,0.60
2022-12-27T00:44:43.480Z,0.70
2022-12-27T00:47:10.796Z,0.90
2022-12-27T00:49:37.900Z,0.73
2022-12-27T00:52:05.018Z,0.70
2022-12-27T00:54:31.981Z,0.80
2022-12-27T00:56:58.826Z,0.90
2022-12-27T00:59:25.657Z,0.70
2022-12-27T01:01:52.794Z,0.70
2022-12-27T01:04:19.762Z,0.47
2022-12-27T01:06:46.712Z,0.70
2022-12-27T01:09:13.555Z,0.77
2022-12-27T01:11:41.272Z,0.50
2022-12-27T01:14:08.156Z,0.57
2022-12-27T01:16:35.316Z,0.60
2022-12-27T01:19:02.388Z,0.55
2022-12-27T01:21:30.864Z,0.60
2022-12-27T01:23:58.435Z,0.57
2022-12-27T01:26:26.145Z,0.60
2022-12-27T01:28:53.960Z,0.60
2022-12-27T01:31:25.265Z,0.70
2022-12-27T01:33:57.724Z,0.70
2022-12-27T01:36:26.309Z,0.50
2022-12-27T01:38:53.607Z,0.40
2022-12-27T01:42:01.042Z,0.75
2022-12-27T01:44:40.247Z,0.60
2022-12-27T01:47:12.850Z,0.60
2022-12-27T01:49:47.496Z,0.35
2022-12-27T01:52:14.676Z,0.70
2022-12-27T01:54:42.947Z,0.38
2022-12-27T01:57:10.358Z,0.50
2022-12-27T01:59:37.907Z,0.50
2022-12-27T02:02:05.424Z,0.43
2022-12-27T02:04:33.094Z,0.60
2022-12-27T02:07:00.343Z,0.50
2022-12-27T02:10:06.104Z,0.70
2022-12-27T02:12:33.299Z,0.40
2022-12-27T02:15:02.151Z,0.40
2022-12-27T02:17:30.938Z,0.65
2022-12-27T02:20:04.739Z,0.57
2022-12-27T02:23:20.604Z,0.60
2022-12-27T02:25:50.204Z,0.90
2022-12-27T02:28:48.519Z,0.60
2022-12-27T02:31:22.139Z,0.43
2022-12-27T02:33:52.966Z,0.60
2022-12-27T02:36:25.876Z,0.55
2022-12-27T02:38:57.874Z,0.60
2022-12-27T02:41:45.038Z,0.90
2022-12-27T02:44:30.999Z,0.70
2022-12-27T02:47:16.768Z,0.60
2022-12-27T02:50:02.747Z,0.80
2022-12-27T02:53:08.167Z,0.60
2022-12-27T02:56:12.094Z,0.70
2022-12-27T02:58:47.959Z,0.50
2022-12-27T03:02:06.963Z,0.70
2022-12-27T03:04:54.337Z,0.55
2022-12-27T03:07:29.917Z,0.60
2022-12-27T03:10:30.381Z,0.45
2022-12-27T03:13:32.162Z,0.70
2022-12-27T03:16:32.424Z,0.52
2022-12-27T03:19:04.921Z,0.60
2022-12-27T03:21:53.252Z,0.95
2022-12-27T03:24:43.807Z,0.80
2022-12-27T03:27:31.582Z,0.65
2022-12-27T03:30:19.532Z,1.05
2022-12-27T03:33:08.817Z,1.08
2022-12-27T03:36:17.210Z,0.60
2022-12-27T03:39:03.743Z,0.93
2022-12-27T03:41:56.449Z,0.68
2022-12-27T03:44:26.584Z,1.00
2022-12-27T03:46:59.099Z,0.80
2022-12-27T03:49:38.932Z,0.82
2022-12-27T03:52:08.542Z,1.17
2022-12-27T03:54:40.487Z,0.93
2022-12-27T03:57:11.653Z,0.95
2022-12-27T03:59:39.124Z,0.80
2022-12-27T04:02:08.799Z,1.10
2022-12-27T04:04:36.056Z,0.88
2022-12-27T04:07:03.909Z,1.25
2022-12-27T04:09:49.545Z,1.00
2022-12-27T04:12:34.956Z,1.85
2022-12-27T04:15:20.649Z,0.90
2022-12-27T04:18:05.989Z,1.20
2022-12-27T04:20:51.872Z,1.10
2022-12-27T04:23:37.171Z,0.90
2022-12-27T04:26:22.752Z,1.02
2022-12-27T04:29:08.145Z,0.90
2022-12-27T04:31:54.007Z,0.90
2022-12-27T04:34:39.620Z,1.25
2022-12-27T04:37:07.359Z,1.50
2022-12-27T04:39:34.179Z,1.20
2022-12-27T04:42:19.603Z,1.40
2022-12-27T04:45:07.872Z,1.08
2022-12-27T04:47:58.710Z,0.90
2022-12-27T04:50:50.154Z,0.90
2022-12-27T04:53:39.914Z,1.15
2022-12-27T04:56:07.539Z,1.20
2022-12-27T04:58:34.927Z,0.90
2022-12-27T05:01:22.753Z,0.98
2022-12-27T05:03:52.840Z,0.95
2022-12-27T05:06:19.855Z,0.80
2022-12-27T05:09:05.900Z,1.00
2022-12-27T05:11:51.477Z,0.80
2022-12-27T05:14:18.302Z,1.08
2022-12-27T05:16:45.622Z,0.98
2022-12-27T05:19:14.603Z,1.00
2022-12-27T05:22:05.119Z,0.95
2022-12-27T05:24:51.316Z,1.10
2022-12-27T05:27:18.233Z,0.80
2022-12-27T05:29:46.235Z,0.80
2022-12-27T05:32:13.887Z,0.82
2022-12-27T05:34:41.507Z,0.90
2022-12-27T05:37:08.723Z,0.80
2022-12-27T05:39:35.908Z,1.30
2022-12-27T05:42:03.437Z,1.10
2022-12-27T05:44:30.415Z,0.90
2022-12-27T05:46:57.314Z,1.33
2022-12-27T05:49:24.176Z,0.80
2022-12-27T05:51:50.995Z,1.20
2022-12-27T05:54:17.852Z,0.85
2022-12-27T05:56:44.709Z,0.73
2022-12-27T05:59:11.537Z,1.27
2022-12-27T06:01:39.772Z,0.90
2022-12-27T06:04:06.682Z,1.00
2022-12-27T06:06:34.419Z,1.02
2022-12-27T06:09:01.525Z,0.77
2022-12-27T06:11:28.390Z,1.00
2022-12-27T06:13:55.459Z,1.20
2022-12-27T06:16:22.831Z,1.20
2022-12-27T06:18:49.816Z,1.13
2022-12-27T06:21:19.888Z,1.10
2022-12-27T06:23:47.604Z,1.00
2022-12-27T06:26:23.284Z,1.10
2022-12-27T06:28:51.689Z,0.85
2022-12-27T06:31:19.795Z,1.00
2022-12-27T06:33:48.137Z,1.10
2022-12-27T06:36:17.026Z,1.00
2022-12-27T06:38:44.631Z,0.90
2022-12-27T06:41:17.438Z,0.90
2022-12-27T06:43:45.213Z,1.08
2022-12-27T06:46:17.586Z,0.90
2022-12-27T06:48:48.571Z,1.23
2022-12-27T06:51:17.975Z,1.20
2022-12-27T06:53:49.470Z,1.55
2022-12-27T06:56:19.102Z,1.45
2022-12-27T06:58:47.691Z,1.08
2022-12-27T07:01:17.316Z,0.90
2022-12-27T07:03:56.686Z,1.17
2022-12-27T07:06:25.364Z,1.15
2022-12-27T07:08:52.737Z,1.27
2022-12-27T07:11:20.656Z,1.20
2022-12-27T07:13:50.335Z,1.45
2022-12-27T07:16:21.347Z,1.08
2022-12-27T07:18:49.959Z,1.15
2022-12-27T07:21:20.420Z,1.10
2022-12-27T07:23:47.825Z,1.20
2022-12-27T07:26:19.781Z,1.60
2022-12-27T07:28:46.886Z,1.42
2022-12-27T07:31:19.116Z,0.95
2022-12-27T07:33:46.515Z,1.10
2022-12-27T07:36:40.878Z,1.75
2022-12-27T07:39:08.605Z,1.58
2022-12-27T07:41:36.446Z,1.25
2022-12-27T07:44:04.438Z,1.38
2022-12-27T07:46:31.261Z,1.20
2022-12-27T07:48:58.873Z,1.10
2022-12-27T07:51:27.554Z,1.10
2022-12-27T07:53:55.040Z,1.48
2022-12-27T07:56:27.189Z,1.40
2022-12-27T07:58:55.671Z,1.25
2022-12-27T08:01:23.769Z,1.38
2022-12-27T08:03:50.676Z,1.33
2022-12-27T08:06:24.335Z,1.52
2022-12-27T08:08:52.810Z,1.40
2022-12-27T08:11:20.386Z,1.85
2022-12-27T08:13:47.840Z,1.30
2022-12-27T08:16:24.037Z,1.77
2022-12-27T08:18:51.178Z,1.35
2022-12-27T08:21:18.028Z,1.10
2022-12-27T08:23:45.358Z,1.50
2022-12-27T08:26:12.228Z,1.20
2022-12-27T08:28:39.140Z,1.45
2022-12-27T08:31:10.884Z,1.40
2022-12-27T08:33:37.933Z,1.45
2022-12-27T08:36:29.179Z,1.33
2022-12-27T08:38:57.314Z,1.40
2022-12-27T08:41:24.388Z,1.42
2022-12-27T08:43:51.198Z,1.52
2022-12-27T08:46:19.503Z,1.38
2022-12-27T08:48:50.067Z,1.60
2022-12-27T08:51:26.571Z,1.70
2022-12-27T08:53:57.168Z,1.70
2022-12-27T08:56:25.308Z,1.63
2022-12-27T08:58:52.227Z,1.75
2022-12-27T09:01:19.429Z,1.60
2022-12-27T09:03:46.488Z,1.80
2022-12-27T09:06:17.642Z,1.70
2022-12-27T09:08:47.120Z,1.55
2022-12-27T09:11:16.505Z,1.70
2022-12-27T09:13:43.826Z,2.00
2022-12-27T09:16:14.226Z,1.60
2022-12-27T09:18:42.545Z,2.08
2022-12-27T09:21:13.583Z,1.95
2022-12-27T09:23:41.355Z,1.90
2022-12-27T09:26:10.387Z,1.83
2022-12-27T09:28:37.647Z,1.63
2022-12-27T09:31:06.416Z,2.00
2022-12-27T09:33:33.457Z,1.60
2022-12-27T09:36:09.225Z,1.70
2022-12-27T09:38:36.862Z,1.73
2022-12-27T09:41:06.746Z,1.70
2022-12-27T09:43:39.513Z,1.92
2022-12-27T09:46:13.131Z,1.63
2022-12-27T09:48:40.712Z,1.60
2022-12-27T09:51:20.362Z,1.83
2022-12-27T09:54:05.999Z,1.90
2022-12-27T09:57:09.657Z,1.95
2022-12-27T09:59:33.223Z,1.75
2022-12-27T10:02:00.126Z,1.80
2022-12-27T10:05:09.821Z,2.08
2022-12-27T10:07:46.654Z,1.80
2022-12-27T10:10:44.371Z,2.25
2022-12-27T10:13:17.886Z,2.33
2022-12-27T10:16:00.765Z,2.07
2022-12-27T10:18:58.838Z,2.13
2022-12-27T10:21:29.490Z,2.00
2022-12-27T10:24:06.413Z,2.38
2022-12-27T10:26:33.413Z,2.20
2022-12-27T10:29:19.875Z,2.20
2022-12-27T10:31:46.965Z,2.10
2022-12-27T10:34:16.904Z,1.88
2022-12-27T10:36:45.142Z,2.08
2022-12-27T10:39:18.913Z,1.75
2022-12-27T10:42:16.916Z,2.30
2022-12-27T10:44:43.811Z,2.88
2022-12-27T10:47:11.767Z,3.80
2022-12-27T10:49:40.868Z,2.80
2022-12-27T10:52:09.460Z,2.47
2022-12-27T10:54:53.763Z,1.92
2022-12-27T10:57:34.338Z,2.60
2022-12-27T11:00:22.769Z,2.17
2022-12-27T11:02:58.584Z,2.03
2022-12-27T11:05:31.140Z,1.85
2022-12-27T11:07:58.502Z,1.98
2022-12-27T11:10:33.630Z,2.03
2022-12-27T11:13:01.928Z,2.38
2022-12-27T11:15:34.118Z,2.13
2022-12-27T11:18:17.142Z,2.53
2022-12-27T11:20:50.443Z,2.75
2022-12-27T11:23:20.907Z,2.45
2022-12-27T11:26:00.491Z,2.58
2022-12-27T11:28:31.833Z,1.92
2022-12-27T11:31:05.202Z,1.90
2022-12-27T11:33:50.181Z,2.40
2022-12-27T11:36:35.733Z,2.10
2022-12-27T11:39:03.133Z,1.98
2022-12-27T11:41:54.163Z,2.05
2022-12-27T11:44:24.615Z,1.80
2022-12-27T11:47:06.226Z,1.95
2022-12-27T11:49:40.209Z,2.15
2022-12-27T11:52:23.619Z,2.15
2022-12-27T11:54:59.321Z,2.33
2022-12-27T11:57:33.573Z,1.80
2022-12-27T12:00:09.413Z,2.20
2022-12-27T12:03:17.790Z,2.28
2022-12-27T12:05:55.822Z,1.75
2022-12-27T12:08:51.341Z,1.80
2022-12-27T12:11:54.905Z,1.83
2022-12-27T12:14:43.509Z,1.98
2022-12-27T12:17:18.985Z,1.85
2022-12-27T12:20:18.280Z,1.90
2022-12-27T12:22:58.762Z,1.98
2022-12-27T12:25:59.949Z,2.00
2022-12-27T12:28:57.142Z,1.88
2022-12-27T12:31:45.041Z,2.42
2022-12-27T12:34:47.048Z,2.40
2022-12-27T12:37:43.492Z,1.98
2022-12-27T12:40:44.360Z,1.70
2022-12-27T12:43:23.484Z,1.65
2022-12-27T12:46:11.942Z,1.90
2022-12-27T12:48:56.126Z,2.25
2022-12-27T12:51:31.832Z,1.50
2022-12-27T12:54:16.865Z,1.95
2022-12-27T12:56:57.303Z,1.98
2022-12-27T13:00:15.269Z,1.65
2022-12-27T13:03:27.819Z,2.00
2022-12-27T13:06:18.794Z,1.67
2022-12-27T13:09:07.190Z,1.85
2022-12-27T13:12:11.910Z,1.80
2022-12-27T13:15:06.295Z,1.63
2022-12-27T13:17:59.653Z,1.50
2022-12-27T13:20:46.460Z,1.38
2022-12-27T13:23:35.426Z,1.50
2022-12-27T13:26:07.851Z,1.95
2022-12-27T13:29:15.702Z,1.10
2022-12-27T13:32:13.350Z,1.67
2022-12-27T13:34:55.282Z,1.40
2022-12-27T13:37:50.636Z,1.70
2022-12-27T13:40:29.195Z,1.60
2022-12-27T13:43:06.007Z,1.45
2022-12-27T13:46:02.311Z,1.33
2022-12-27T13:48:53.928Z,1.40
2022-12-27T13:51:48.750Z,1.90
2022-12-27T13:54:41.478Z,2.00
2022-12-27T13:57:32.576Z,1.58
2022-12-27T14:00:04.440Z,1.45
2022-12-27T14:03:08.868Z,1.30
2022-12-27T14:05:52.601Z,1.50
2022-12-27T14:09:05.321Z,1.58
2022-12-27T14:12:07.481Z,1.30
2022-12-27T14:14:39.233Z,1.10
2022-12-27T14:17:24.773Z,1.33
2022-12-27T14:20:17.381Z,0.93
2022-12-27T14:23:11.356Z,1.20
2022-12-27T14:25:59.431Z,1.20
2022-12-27T14:29:07.893Z,1.30
2022-12-27T14:32:05.547Z,1.20
2022-12-27T14:34:49.521Z,1.20
2022-12-27T14:37:57.942Z,1.35
2022-12-27T14:40:58.427Z,1.15
2022-12-27T14:43:46.801Z,1.33
2022-12-27T14:46:40.727Z,1.10
2022-12-27T14:49:40.756Z,0.95
2022-12-27T14:52:26.472Z,0.90
2022-12-27T14:55:18.159Z,0.90
2022-12-27T14:58:06.223Z,1.20
2022-12-27T15:00:49.618Z,1.10
2022-12-27T15:03:41.405Z,0.90
2022-12-27T15:06:51.247Z,0.80
2022-12-27T15:09:36.965Z,1.00
2022-12-27T15:12:28.624Z,0.85
2022-12-27T15:15:15.249Z,1.00
2022-12-27T15:18:17.380Z,0.70
2022-12-27T15:20:53.084Z,0.90
2022-12-27T15:23:51.310Z,0.93
2022-12-27T15:26:24.834Z,0.95
2022-12-27T15:29:14.517Z,1.03
2022-12-27T15:32:00.253Z,1.02
2022-12-27T15:35:01.286Z,0.80
2022-12-27T15:38:06.195Z,0.98
2022-12-27T15:40:32.925Z,1.27
2022-12-27T15:43:34.676Z,1.60
2022-12-27T15:46:36.093Z,1.38
2022-12-27T15:49:06.543Z,1.17
2022-12-27T15:51:45.011Z,1.27
2022-12-27T15:55:00.587Z,1.30
2022-12-27T15:57:48.897Z,1.00
2022-12-27T16:00:24.808Z,1.17
2022-12-27T16:02:55.489Z,1.27
2022-12-27T16:05:22.364Z,1.30
2022-12-27T16:08:12.406Z,1.40
2022-12-27T16:10:42.069Z,1.42
2022-12-27T16:13:11.627Z,1.50
2022-12-27T16:15:45.303Z,1.88
2022-12-27T16:18:50.945Z,1.70
2022-12-27T16:21:26.742Z,1.70
2022-12-27T16:24:04.982Z,1.45
2022-12-27T16:26:35.289Z,1.45
2022-12-27T16:29:09.665Z,1.27
2022-12-27T16:34:27.820Z,2.30
2022-12-27T16:36:58.466Z,2.10
2022-12-27T16:39:50.614Z,2.00
2022-12-27T16:42:26.989Z,2.05
2022-12-27T16:45:05.994Z,1.75
2022-12-27T16:47:54.783Z,1.65
2022-12-27T16:50:32.613Z,2.00
2022-12-27T16:53:46.926Z,2.03
2022-12-27T16:56:35.894Z,1.70
2022-12-27T16:59:03.689Z,1.63
2022-12-27T17:01:36.599Z,2.38
2022-12-27T17:04:04.215Z,3.28
2022-12-27T17:06:33.159Z,3.08
2022-12-27T17:09:09.614Z,2.45
2022-12-27T17:12:00.857Z,2.67
2022-12-27T17:14:31.659Z,3.10
2022-12-27T17:17:20.826Z,3.10
2022-12-27T17:19:56.367Z,4.65
2022-12-27T17:22:28.811Z,5.22
2022-12-27T17:25:02.105Z,4.00
2022-12-27T17:28:17.201Z,2.63
2022-12-27T17:31:08.879Z,2.30
2022-12-27T17:34:03.869Z,1.95
2022-12-27T17:39:24.452Z,1.83
2022-12-27T17:42:34.381Z,1.65
2022-12-27T17:45:31.307Z,1.77
2022-12-27T17:48:25.050Z,1.63
2022-12-27T17:50:54.668Z,1.40
2022-12-27T17:53:42.090Z,1.45
2022-12-27T17:57:03.930Z,1.65
2022-12-27T17:59:32.503Z,1.70
2022-12-27T18:02:25.909Z,1.75
2022-12-27T18:04:55.508Z,1.75
2022-12-27T18:07:30.055Z,1.83
2022-12-27T18:10:07.563Z,1.60
2022-12-27T18:12:39.625Z,1.77
2022-12-27T18:15:21.859Z,1.70
2022-12-27T18:17:51.923Z,1.70
2022-12-27T18:20:28.133Z,1.90
2022-12-27T18:23:01.113Z,1.55
2022-12-27T18:25:33.957Z,1.90
2022-12-27T18:28:03.530Z,1.63
2022-12-27T18:30:39.698Z,2.00
2022-12-27T18:33:07.220Z,2.10
2022-12-27T18:35:34.928Z,1.73
2022-12-27T18:38:06.903Z,2.22
2022-12-27T18:40:35.135Z,1.70
2022-12-27T18:43:02.043Z,1.65
2022-12-27T18:45:33.664Z,1.50
2022-12-27T18:48:04.517Z,1.70
2022-12-27T18:50:34.404Z,1.73
2022-12-27T18:53:04.827Z,2.03
2022-12-27T18:55:32.250Z,1.98
2022-12-27T18:58:20.730Z,1.83
2022-12-27T19:00:51.490Z,1.60
2022-12-27T19:03:20.842Z,1.67
2022-12-27T19:06:00.561Z,1.80
2022-12-27T19:08:34.806Z,1.80
2022-12-27T19:11:02.598Z,2.10
2022-12-27T19:13:38.561Z,2.25
2022-12-27T19:16:05.685Z,2.88
2022-12-27T19:18:38.433Z,3.15
2022-12-27T19:21:06.825Z,2.70
2022-12-27T19:23:36.897Z,2.05
2022-12-27T19:26:07.992Z,2.53
2022-12-27T19:28:36.046Z,2.15
2022-12-27T19:31:16.303Z,2.65
2022-12-27T19:33:48.186Z,2.22
2022-12-27T19:36:15.300Z,2.47
2022-12-27T19:38:47.797Z,2.53
2022-12-27T19:41:15.961Z,2.08
2022-12-27T19:43:45.890Z,2.15
2022-12-27T19:46:13.875Z,1.85
2022-12-27T19:48:41.485Z,2.25
2022-12-27T19:51:15.692Z,2.05
2022-12-27T19:53:44.293Z,1.85
2022-12-27T19:56:11.796Z,1.95
2022-12-27T19:58:39.005Z,1.73
2022-12-27T20:01:05.901Z,2.00
2022-12-27T20:03:32.913Z,1.77
2022-12-27T20:06:13.410Z,1.77
2022-12-27T20:08:48.616Z,1.85
2022-12-27T20:11:19.580Z,1.70
2022-12-27T20:13:47.295Z,1.88
2022-12-27T20:16:17.630Z,2.03
2022-12-27T20:18:45.529Z,2.00
2022-12-27T20:21:17.498Z,1.75
2022-12-27T20:23:44.639Z,1.50
2022-12-27T20:26:13.815Z,1.60
2022-12-27T20:28:41.178Z,1.85
2022-12-27T20:31:09.501Z,1.75
2022-12-27T20:33:36.384Z,1.80
2022-12-27T20:36:04.166Z,2.08
2022-12-27T20:38:31.570Z,1.75
2022-12-27T20:41:06.572Z,1.83
2022-12-27T20:43:33.441Z,2.00
2022-12-27T20:46:05.273Z,1.63
2022-12-27T20:48:32.170Z,1.60
2022-12-27T20:51:04.773Z,1.70
2022-12-27T20:53:31.568Z,1.65
2022-12-27T20:56:03.054Z,1.60
2022-12-27T20:58:33.964Z,1.70
2022-12-27T21:01:13.308Z,1.60
2022-12-27T21:03:40.504Z,2.00
2022-12-27T21:06:07.689Z,2.00
2022-12-27T21:08:40.413Z,2.20
2022-12-27T21:11:14.334Z,1.50
2022-12-27T21:13:42.702Z,2.17
2022-12-27T21:16:12.505Z,1.60
2022-12-27T21:18:39.389Z,2.00
2022-12-27T21:21:09.426Z,1.63
2022-12-27T21:23:37.828Z,1.98
2022-12-27T21:26:07.596Z,1.88
2022-12-27T21:28:35.458Z,1.48
2022-12-27T21:31:02.416Z,1.80
2022-12-27T21:33:29.583Z,1.67
2022-12-27T21:36:08.539Z,1.60
2022-12-27T21:38:35.819Z,1.98
2022-12-27T21:41:05.195Z,1.90
2022-12-27T21:43:33.144Z,2.10
2022-12-27T21:46:06.292Z,1.58
2022-12-27T21:48:33.484Z,1.58
2022-12-27T21:51:08.923Z,1.67
2022-12-27T21:53:36.136Z,1.70
2022-12-27T21:56:03.657Z,1.70
2022-12-27T21:58:32.100Z,1.80
2022-12-27T22:01:10.858Z,1.73
2022-12-27T22:03:40.149Z,1.75
2022-12-27T22:06:21.269Z,1.60
2022-12-27T22:08:51.282Z,1.58
2022-12-27T22:11:19.688Z,1.70
2022-12-27T22:13:46.733Z,1.52
2022-12-27T22:16:21.598Z,1.63
2022-12-27T22:18:49.261Z,1.70
2022-12-27T22:21:28.471Z,1.60
2022-12-27T22:23:57.791Z,1.50
2022-12-27T22:26:28.112Z,1.55
2022-12-27T22:28:55.202Z,1.20
2022-12-27T22:31:25.257Z,1.60
2022-12-27T22:33:52.417Z,1.40
2022-12-27T22:36:24.451Z,1.40
2022-12-27T22:38:53.585Z,1.63
2022-12-27T22:41:25.968Z,1.60
2022-12-27T22:43:55.924Z,1.40
2022-12-27T22:46:23.598Z,1.40
2022-12-27T22:48:52.201Z,1.50
2022-12-27T22:51:22.681Z,1.50
2022-12-27T22:53:50.159Z,2.00
2022-12-27T22:56:19.964Z,1.38
2022-12-27T22:58:47.682Z,1.23
2022-12-27T23:01:20.427Z,1.38
2022-12-27T23:03:47.850Z,1.52
2022-12-27T23:06:15.095Z,1.50
2022-12-27T23:08:43.643Z,1.70
2022-12-27T23:11:22.610Z,1.50
2022-12-27T23:13:58.559Z,1.45
2022-12-27T23:16:25.795Z,1.70
2022-12-27T23:18:52.967Z,1.65
2022-12-27T23:21:24.592Z,1.92
2022-12-27T23:23:52.651Z,1.55
2022-12-27T23:26:22.110Z,1.70
2022-12-27T23:28:51.216Z,2.00
2022-12-27T23:31:19.960Z,1.92
2022-12-27T23:33:47.332Z,2.00
2022-12-27T23:36:14.663Z,2.22
2022-12-27T23:38:42.693Z,2.40
2022-12-27T23:41:15.684Z,1.95
2022-12-27T23:43:58.224Z,2.00
2022-12-27T23:46:28.182Z,1.70
2022-12-27T23:48:56.546Z,1.95
2022-12-27T23:51:23.854Z,1.98
2022-12-27T23:53:51.060Z,1.75
2022-12-27T23:56:26.506Z,2.10
2022-12-27T23:58:56.347Z,2.20
